Roberto Rodriguez

Chefscout - Leon
3 Dez 2028
Sonntag
Verarbeitung

Persönlichkeit

Anpassungsfähigkeit (18) Ehrgeiz (11) Kontroverse (14) Loyalität (1) Druck (4) Professionalität (5) Fairness (3) Temperament (18)

Profil

Trainerstil Demokratisch
Lizenz Nationale B
Entschlossenheit 7
Menschenführung 13
Motivation 8
Disziplin 7
Arbeitszufriedenheit
100%
Ermüdung
0%
Rolle Chefscout
Gehalt 19.5K p/W
Vertrag 14.03.2029

Leistung

Verhalten Gut
Trainingseffektivität
41%
Spielerentwicklung
50%
Verletzungsprävention
35%
Taktische Umsetzung
30%

Letzte Ereignisse

Empfahl ein Transferziel jetzt
Empfahl ein Transferziel jetzt
Empfahl ein Transferziel jetzt
Nahm an einer Scouting-Besprechung teil jetzt
Empfahl ein Transferziel jetzt
Spieler begutachtet jetzt
Spieler begutachtet jetzt
Spieler begutachtet jetzt

Aktuell beobachtet

425
Spieler Verein Status Fähigkeit Vertrauen Beobachtet Zuletzt beobachtet Letzte Stimme
Camilo Martinez Cortulua Aktiv 132 / 134 40% 6 02.12.2028 -
Renzo Bacchia Racing Aktiv 127 / 120 40% 7 02.12.2028 -
Luis Ingolotti Atlético Tucumán Aktiv 130 / 125 40% 7 02.12.2028 -
Álvaro Busso Vélez Aktiv 115 / 111 40% 6 02.12.2028 -
Jhomier Guerrero Millonarios Aktiv 124 / 122 40% 1 02.12.2028 -
Santiago Fernández Talleres Aktiv 122 / 124 40% 1 02.12.2028 -
Bruno Leyes Godoy Cruz Aktiv 131 / 130 40% 9 30.11.2028 -
Nicolás Sumavil Platense Aktiv 116 / 116 40% 7 30.11.2028 -
Lautaro Maldonado Instituto Aktiv 122 / 114 40% 10 30.11.2028 -
Williams Barlasina Fortaleza CEIF Aktiv 126 / 115 40% 5 30.11.2028 -
Gonzalo Pérez Lanús Aktiv 123 / 122 40% 1 30.11.2028 -
Luis Palacios Once Caldas Aktiv 125 / 120 40% 1 30.11.2028 -
Lucas Cuevas Rosario Central Aktiv 123 / 131 40% 9 28.11.2028 -
Iñaki Peña Urawa Reds Aktiv 159 / 136 40% 10 28.11.2028 -
Lucas Arcanjo Vitória Aktiv 132 / 122 40% 1 28.11.2028 -
Sebastián Meza Bragantino Aktiv 128 / 127 40% 7 27.11.2028 -
Frankarlos Benítez Caracas Aktiv 117 / 112 40% 5 27.11.2028 -
Emiliano González Almagro Aktiv 123 / 113 40% 5 26.11.2028 -
Esteban Glellel Quilmes Aktiv 118 / 119 40% 4 26.11.2028 -
Manuel Roffo HNK Rijeka Aktiv 132 / 152 40% 1 26.11.2028 -
Adrián Sánchez Belgrano Aktiv 123 / 129 40% 2 25.11.2028 -
Federico Losas Chacarita Juniors Aktiv 122 / 130 40% 4 25.11.2028 -
Lucas Morales Nacional Aktiv 127 / 121 40% 1 25.11.2028 -
Mateo Mendoza Yokohama F. Marinos Aktiv 128 / 136 40% 1 25.11.2028 -
Vicente Reyes Iquique Aktiv 117 / 116 40% 7 23.11.2028 -
Juan Moreno La Luz Aktiv 117 / 116 40% 5 22.11.2028 -
Matías Dufour Sportivo Trinidense Aktiv 116 / 115 40% 6 20.11.2028 -
Joaquín Blázquez Talleres Aktiv 123 / 132 40% 4 20.11.2028 -
Arthur Augusto Semen Padang Aktiv 106 / 127 40% 2 20.11.2028 -
Lautaro Morales Lanús Aktiv 136 / 137 40% 3 18.11.2028 -
Lautaro Petruchi Gimnasia y Esgrima Aktiv 113 / 122 40% 2 18.11.2028 -
Ángel Maciel Tacuarembo Aktiv 114 / 114 40% 5 17.11.2028 -
Fabrizio Correa Juventud Aktiv 123 / 134 40% 7 17.11.2028 -
Mauro Silveira Junior Aktiv 130 / 132 40% 5 16.11.2028 -
Leandro Brey Boca Juniors Aktiv 142 / 135 40% 6 14.11.2028 -
Isaac Boehmer Vancouver Whitecaps Aktiv 116 / 118 40% 2 14.11.2028 -
Juan Camilo Mosquera Atletico Bucaramanga Aktiv 119 / 111 40% 1 14.11.2028 -
Tobías Leiva Estudiantes Aktiv 121 / 118 40% 1 14.11.2028 -
Javier Mena Aguilas Doradas Aktiv 118 / 129 40% 2 11.11.2028 -
Augusto Schott Talleres Aktiv 125 / 120 40% 1 11.11.2028 -
Juan Antonini Estudiantes Aktiv 114 / 112 40% 1 11.11.2028 -
Juan José Tello Deportivo Cali Aktiv 109 / 103 40% 1 10.11.2028 -
Facundo Sanguinetti Banfield Aktiv 132 / 126 40% 7 07.11.2028 -
Cristopher Varela Deportivo La Guaira Aktiv 130 / 132 40% 5 07.11.2028 -
Siro Rosané Estudiantes Aktiv 118 / 124 40% 1 07.11.2028 -
Tomás Castro Ponce Atlanta Aktiv 116 / 109 40% 1 07.11.2028 -
Francisco Salerno Defensores Unidos Aktiv 112 / 113 40% 2 29.10.2028 -
Juan Pablo Montoya Leones Aktiv 117 / 111 40% 2 29.10.2028 -
Kazuki Fujita Avispa Fukuoka Aktiv 116 / 136 40% 2 26.10.2028 -
Tomás Romero New York City Aktiv 127 / 121 40% 1 25.10.2028 -
Novak Mićović LA Galaxy Aktiv 132 / 121 40% 4 24.10.2028 -
Luciano Jachfe Nueva Chicago Aktiv 125 / 124 40% 2 22.10.2028 -
Ángel González Libertad Aktiv 118 / 108 40% 3 15.10.2028 -
Diego Enríquez Sporting Cristal Aktiv 138 / 145 40% 1 14.10.2028 -
Bruno Antúnez Boston River Aktiv 117 / 109 40% 2 04.10.2028 -
Nazareno Durán Huracán Aktiv 126 / 121 40% 1 02.10.2028 -
Alejandro Rodríguez Melgar Aktiv 126 / 129 40% 3 24.09.2028 -
Alex Kouto Horio Pisano Nagoya Grampus Aktiv 133 / 145 40% 1 16.09.2028 -
Diego Romero Universitario Aktiv 128 / 126 40% 1 14.09.2028 -
Tomás Ahumada Audax Italiano Aktiv 129 / 127 40% 1 07.09.2028 -
Luka Gavran Toronto FC Aktiv 117 / 114 40% 1 06.09.2028 -
Jesús Vega Queretaro Verhandlung 102 / 99 76% 1 28.08.2028 -
Peyton Miller New England Revolution Aktiv 110 / 131 40% 1 23.08.2028 -
Alejandro Almaraz NK Celje Aktiv 121 / 107 40% 1 23.08.2028 -
Miguel Agámez Atletico Nacional Aktiv 99 / 116 40% 1 23.08.2028 -
Diego Romero Universitario Verloren 133 / 124 40% 1 21.08.2028 -
Celías Ingenthron Platense Aktiv 114 / 129 40% 6 16.08.2028 -
Felipe Obradovich Ferro Carril Oeste Aktiv 113 / 122 40% 1 16.08.2028 -
Augusto Bando Ascoli Aktiv 109 / 125 40% 1 16.08.2028 -
Sol Brynn Bradford City Aktiv 139 / 143 40% 1 07.08.2028 -
Kiani Inge Groningen Aktiv 116 / 130 40% 2 31.07.2028 -
Roberto Medina La Equidad Aktiv 98 / 105 40% 1 31.07.2028 -
Diego Vargas Universidad de Concepcion Aktiv 94 / 102 40% 2 24.07.2028 -
Héctor Fort Real Sociedad Aktiv 148 / 158 40% 7 24.07.2028 -
Jorge Salinas Racing Santander Aktiv 141 / 150 40% 8 24.07.2028 -
Bernardo Lima Porto Verloren 121 / 119 40% 5 11.07.2028 -
Tobías Ramírez River Plate Aktiv 127 / 136 40% 2 11.07.2028 -
Lautaro Dufur Juventud Aktiv 105 / 106 40% 3 11.07.2028 -
Josh Nichols Oldham Athletic Aktiv 123 / 136 40% 5 10.07.2028 -
Andrija Bulatović Chamois Niortais Aktiv 133 / 119 40% 4 10.07.2028 -
Cheveyo Tsawa Club Brugge Aktiv 132 / 128 40% 4 07.07.2028 -
Christos Mouzakitis Hull City Aktiv 133 / 131 40% 2 04.07.2028 -
Buba Sangaré Elche Aktiv 132 / 138 40% 1 04.07.2028 -
Trey Nyoni Rotherham United Aktiv 143 / 158 40% 4 03.07.2028 -
Martim Cunha Porto Aktiv 118 / 107 40% 4 02.07.2028 -
Ayden Heaven Portsmouth Aktiv 149 / 136 40% 4 30.06.2028 -
Tyler Fletcher Rotherham United Aktiv 114 / 129 40% 3 30.06.2028 -
Jan Bürger Northampton Town Aktiv 125 / 139 40% 11 26.06.2028 -
Nicolás Fernández Pachuca Bericht bereit 120 / 124 76% 1 26.06.2028 -
Mourad Tijuana Bericht bereit 125 / 115 76% 1 19.06.2028 -
Lucas Høgsberg RC Strasbourg Aktiv 149 / 134 40% 3 15.06.2028 -
Riquelme Thompson-Jones Accrington Stanley Aktiv 106 / 128 40% 1 15.06.2028 -
Lamine Bèye Portimonense Aktiv 117 / 120 40% 2 13.06.2028 -
Daniel Banjaqui Benfica Aktiv 128 / 143 40% 5 11.06.2028 -
Joel Ezra Enyimba Aktiv 94 / 93 40% 5 10.06.2028 -
Jorge Hernández Tijuana Bericht bereit 122 / 124 76% 1 07.06.2028 -
Giovanni Leoni Lincoln City Aktiv 135 / 135 40% 3 06.06.2028 -
Pape Diong Westerlo Verloren 125 / 131 40% 3 05.06.2028 -
Alfie Whiteman Newport County Aktiv 121 / 113 40% 1 05.06.2028 -
Thijs Kraaijeveld USM Alger Aktiv 132 / 125 40% 1 05.06.2028 -
Cade Cowell Guadalajara Verloren 115 / 119 76% 1 04.06.2028 -
Andrés Martín Racing Santander Aktiv 148 / 155 40% 5 03.06.2028 -
Jayden Danns Bradford City Aktiv 138 / 151 40% 3 03.06.2028 -
Joaquín Tobio Burgos Pachuca Aktiv 120 / 139 76% 1 03.06.2028 Befürworten
Urko Izeta Cádiz Aktiv 136 / 127 40% 6 02.06.2028 -
Fer Niño Elche Aktiv 135 / 135 40% 4 02.06.2028 -
Balázs Tóth Blackburn Rovers Aktiv 136 / 139 40% 1 01.06.2028 -
James Trafford Leeds United Aktiv 159 / 141 40% 1 01.06.2028 -
Lukáš Horníček Burnley Aktiv 149 / 147 40% 1 01.06.2028 -
Jonathan Dubasin Osasuna Aktiv 151 / 161 40% 6 30.05.2028 -
Abel Ruiz Girona Aktiv 153 / 148 40% 6 30.05.2028 -
Maroan Sannadi Athletic Bilbao Aktiv 150 / 134 40% 5 30.05.2028 -
Óscar Aranda Getafe Aktiv 143 / 129 40% 8 29.05.2028 -
Javi Puado Espanyol Aktiv 146 / 140 40% 7 29.05.2028 -
Yassir Zabiri Stade Rennais Aktiv 139 / 131 40% 5 27.05.2028 -
Zito Luvumbo Cagliari Aktiv 134 / 138 40% 7 26.05.2028 -
Adrián Niño Málaga Aktiv 138 / 126 40% 4 26.05.2028 -
Ismaïla Sarr Crystal Palace Aktiv 161 / 145 40% 3 25.05.2028 -
García Pascual Cádiz Aktiv 131 / 114 40% 4 22.05.2028 -
Hugo Duro Valencia Aktiv 137 / 153 40% 5 21.05.2028 -
Tyreece Campbell Charlton Athletic Aktiv 128 / 130 40% 4 21.05.2028 -
Diego López Valencia Aktiv 141 / 139 40% 4 20.05.2028 -
Malik Mothersille Stockport County Aktiv 114 / 106 40% 2 20.05.2028 -
Callum O'Hare Sheffield United Aktiv 144 / 125 40% 2 19.05.2028 -
Jon Morcillo Almería Aktiv 140 / 126 40% 3 15.05.2028 -
Justo Giani Umraniyespor Aktiv 119 / 125 40% 10 12.05.2028 -
Honest Ahanor Atalanta Aktiv 142 / 152 40% 5 12.05.2028 -
Aaron Collins Milton Keynes Dons Aktiv 129 / 135 40% 1 07.05.2028 -
Tyrese Campbell Sheffield United Aktiv 126 / 122 40% 5 06.05.2028 -
Christantus Uche Getafe Aktiv 152 / 134 40% 7 06.05.2028 -
Nicolò Moranduzzo Renate Aktiv 90 / 95 40% 1 03.05.2028 -
William Osula Wrexham Aktiv 141 / 152 40% 3 01.05.2028 -
Juanmi Latasa Valladolid Aktiv 138 / 138 40% 3 25.04.2028 -
Adam Jakobsen Castellón Aktiv 115 / 135 40% 2 20.04.2028 -
Sebastiano Esposito Cagliari Aktiv 144 / 156 40% 1 19.04.2028 -
Luis Suárez Sporting CP Aktiv 170 / 143 40% 3 14.04.2028 -
Miguel Rodríguez Alavés Aktiv 129 / 155 40% 6 12.04.2028 -
Roberto Fernández Braga Aktiv 154 / 149 40% 6 09.04.2028 -
Chupete Málaga Aktiv 129 / 139 40% 4 08.04.2028 -
Taiwo Awoniyi Middlesbrough Aktiv 152 / 150 40% 1 06.04.2028 -
Pau Víctor Braga Aktiv 137 / 134 40% 1 05.04.2028 -
Facundo Colidio Vasco da Gama Aktiv 135 / 122 40% 9 03.04.2028 -
Andrés Ferrari Sint-Truiden Aktiv 119 / 112 40% 5 02.04.2028 -
Troy Parrott Betis Aktiv 147 / 146 40% 3 28.03.2028 -
Borja Mayoral Getafe Aktiv 156 / 133 40% 3 25.03.2028 -
Christian Kouamé Atlético Mineiro Aktiv 131 / 133 40% 2 23.03.2028 -
Alemão Rayo Vallecano Aktiv 138 / 142 40% 1 20.03.2028 -
Rodrigo Muniz Fulham Aktiv 147 / 146 40% 1 19.03.2028 -
Williot Swedberg Celta Aktiv 153 / 137 40% 1 18.03.2028 -
Musa Barrow ES Setif Aktiv 144 / 128 40% 1 18.03.2028 -
Izan Merino Málaga Aktiv 124 / 140 40% 1 14.03.2028 -
Tobiáš Pališčák Zlin Aktiv 93 / 125 40% 1 14.03.2028 -
Peque Real Sociedad Aktiv 145 / 138 40% 2 08.03.2028 -
Jorthy Mokio ADO Den Haag Aktiv 126 / 134 40% 1 07.03.2028 -
Liel Abada Inter Miami CF Aktiv 145 / 127 40% 11 27.02.2028 -
Iñigo Córdoba Castellón Aktiv 135 / 116 40% 1 24.02.2028 -
Alejo Veliz Bahia Aktiv 136 / 127 40% 2 17.02.2028 -
Cheikh Sabaly Vancouver Whitecaps Aktiv 128 / 118 40% 1 11.02.2028 -
Josh Acheampong Everton Aktiv 146 / 139 40% 1 08.02.2028 -
Esteban Obregón Montevideo City Torque Aktiv 125 / 117 40% 2 07.02.2028 -
Wessam Abou Ali Columbus Crew Aktiv 128 / 125 40% 1 07.02.2028 -
Victor Froholdt Porto Aktiv 154 / 145 40% 2 18.01.2028 -
Ignacio Fernández Boston River Aktiv 87 / 106 40% 1 18.01.2028 -
Matias Siltanen Malmo FF Aktiv 134 / 122 40% 3 10.01.2028 -
Hian Rincón Once Caldas Aktiv 92 / 96 40% 1 10.01.2028 -
Julian Herrera Cortulua Aktiv 124 / 126 40% 1 05.01.2028 -
Bitello Universidad de Chile Aktiv 135 / 135 68% 1 01.01.2028 Befürworten
Pedro de la Vega Columbus Crew Aktiv 133 / 134 66% 1 01.01.2028 Befürworten
Facundo Torres Millonarios Aktiv 134 / 134 67% 1 01.01.2028 Befürworten
Ignacio Russo Tigre Aktiv 122 / 125 40% 1 31.12.2027 -
Franco Fagúndez Iquique Aktiv 122 / 111 40% 1 31.12.2027 -
Emerson Batalla Atletico Bucaramanga Aktiv 130 / 125 40% 5 30.12.2027 -
Mateo Garavito Deportivo Pasto Aktiv 118 / 125 40% 4 30.12.2027 -
Alexis Cuello San Lorenzo Aktiv 131 / 132 40% 5 28.12.2027 -
Julián Palacios Envigado Aktiv 116 / 119 40% 1 28.12.2027 -
Ignacio Aliseda Cerro Porteno Aktiv 126 / 131 40% 3 25.12.2027 -
Erick Pulga Bahia Aktiv 135 / 133 40% 1 25.12.2027 -
Iñaki Larthirigoyen San Telmo Aktiv 123 / 122 40% 6 23.12.2027 -
Manuel Mónaco Sarmiento Aktiv 124 / 116 40% 4 21.12.2027 -
Dylan Borrero America de Cali Aktiv 123 / 116 40% 6 21.12.2027 -
Juan Bisanz Huracán Aktiv 130 / 120 40% 7 20.12.2027 -
Sayfallah Ltaief O'Higgins Aktiv 127 / 130 40% 5 20.12.2027 -
Daniel Barrea Godoy Cruz Aktiv 122 / 122 40% 5 19.12.2027 -
Andrés Gómez Vasco da Gama Aktiv 143 / 132 40% 2 19.12.2027 -
Alex Luna Instituto Aktiv 137 / 128 40% 6 18.12.2027 -
Johan Martínez Deportivo Cali Aktiv 128 / 123 40% 8 18.12.2027 -
Alejo Dramisino Atlanta Aktiv 116 / 108 40% 5 15.12.2027 -
Alejo Cruz Juventud Aktiv 121 / 125 40% 5 13.12.2027 -
Antonio Galeano Remo Stars Aktiv 127 / 134 40% 7 11.12.2027 -
Franco Nicola Liverpool Montevideo Aktiv 126 / 126 40% 3 10.12.2027 -
Alejandro Piedrahita Deportivo Pereira Aktiv 121 / 121 40% 3 07.12.2027 -
Santiago Toloza O'Higgins Aktiv 121 / 116 40% 1 06.12.2027 -
Santiago Montiel Independiente Aktiv 128 / 135 40% 6 05.12.2027 -
Matko Miljevic Racing Club Aktiv 131 / 127 40% 1 03.12.2027 -
Caio Vidal Deportivo Pereira Aktiv 136 / 136 40% 7 02.12.2027 -
Franco Zapiola Platense Aktiv 131 / 120 40% 4 01.12.2027 -
Caleb Yirenkyi Coventry City Aktiv 144 / 133 40% 2 29.11.2027 -
Daniel Idoko Ikorodu City Aktiv 97 / 111 40% 5 27.11.2027 -
Sebastián Navarro Atletico Nacional Aktiv 123 / 127 40% 5 24.11.2027 -
Hugo Rojas Instituto Aktiv 108 / 102 40% 1 24.11.2027 -
Aarón Molinas Defensa y Justicia Aktiv 131 / 133 40% 4 23.11.2027 -
Zahir Ibarra Defensa y Justicia Aktiv 100 / 104 40% 2 21.11.2027 -
Victor Hernandez Santa Fe Aktiv 124 / 133 40% 6 19.11.2027 -
Mohamed Moussa Koïta Mathare United Aktiv 100 / 92 40% 1 19.11.2027 -
Agustín Medina Lanús Aktiv 113 / 114 40% 1 19.11.2027 -
Nahuel Leivas Montevideo City Torque Aktiv 99 / 109 40% 4 18.11.2027 -
Felipe Faúndez O'Higgins Aktiv 101 / 107 40% 2 18.11.2027 -
Juan Manuel Villalba Tigre Aktiv 120 / 121 40% 2 18.11.2027 -
Nazareno Roselli Defensa y Justicia Aktiv 109 / 113 40% 2 17.11.2027 -
Azizbek To'lqinbekov Bunyodkor Aktiv 90 / 90 40% 1 13.11.2027 -
Yerry Gonzalez Universitario Popayan Aktiv 93 / 97 40% 3 12.11.2027 -
Luciano Posadas Central Córdoba SdE Aktiv 93 / 95 40% 2 12.11.2027 -
Adrian Skogmar Malmo FF Aktiv 115 / 102 40% 2 11.11.2027 -
Kevin Zenón Boca Juniors Aktiv 131 / 122 40% 5 08.11.2027 -
Hosea Michael Remo Stars Aktiv 90 / 98 40% 1 08.11.2027 -
Telasco Segovia Inter Miami CF Aktiv 135 / 123 40% 1 04.11.2027 -
Edwin Mosquera Santa Fe Aktiv 124 / 127 40% 5 31.10.2027 -
Patricio Moyano Defensores Aktiv 115 / 121 40% 4 31.10.2027 -
Samuel Velásquez Atletico Nacional Aktiv 125 / 125 40% 2 17.10.2027 -
Lucas Assadi AIK Aktiv 126 / 117 40% 1 16.10.2027 -
Antony Portland Timbers Aktiv 136 / 131 40% 1 15.10.2027 -
Jonás Luna Wanderers Aktiv 120 / 118 40% 1 14.10.2027 -
Ulises Giménez River Plate Aktiv 117 / 108 40% 2 07.10.2027 -
Olaniyi Saheed Kwara United Aktiv 96 / 91 40% 1 07.10.2027 -
David Da Costa Portland Timbers Aktiv 129 / 140 40% 2 05.10.2027 -
Axel Leiva Independiente Rivadavia Aktiv 94 / 98 40% 1 05.10.2027 -
Facundo Balatti Penarol Aktiv 107 / 111 40% 1 01.10.2027 -
Jannenson Sarmiento Junior Aktiv 126 / 129 40% 2 29.09.2027 -
Colin Guske Orlando City Aktiv 95 / 108 40% 1 25.09.2027 -
Yury Oyarzo Racing Aktiv 94 / 91 40% 2 24.09.2027 -
Agustín Obregón River Plate Aktiv 111 / 126 40% 2 21.09.2027 -
Ángel Aguayo Sol de America Aktiv 87 / 107 40% 1 21.09.2027 -
Franco Díaz Temperley Aktiv 124 / 130 40% 1 13.09.2027 -
Edison López Atletico Nacional Aktiv 127 / 128 40% 1 12.09.2027 -
Emiliano Álvarez Progreso Aktiv 124 / 116 40% 1 12.09.2027 -
Gadiel Paoli River Plate Aktiv 89 / 94 40% 3 09.09.2027 -
Santiago Colidio Liepaja Aktiv 84 / 92 40% 1 06.09.2027 -
Bruno Barticciotto Talleres Aktiv 122 / 127 40% 1 01.09.2027 -
Luciano Cosentino Wanderers Aktiv 127 / 122 40% 1 31.08.2027 -
Mbekezeli Mbokazi Chicago Fire Aktiv 132 / 133 40% 2 19.08.2027 -
Tommaso Cecotti Carpi Aktiv 89 / 121 40% 5 17.08.2027 -
Esteban de Lima Tacuarembo Aktiv 86 / 87 40% 3 17.08.2027 -
Chibueze Oputa Rangers International Aktiv 82 / 83 40% 1 13.08.2027 -
Sascha Britschgi AC Milan Aktiv 132 / 134 40% 8 11.08.2027 -
Pedro Vian Seewald Dolomiti Bellunesi Aktiv 101 / 104 40% 2 10.08.2027 -
Riley Owen Stevenage Aktiv 103 / 96 40% 5 09.08.2027 -
Maldini Kacurri Grimsby Town Aktiv 93 / 103 40% 2 27.07.2027 -
Zane Albarus Shrewsbury Town Aktiv 105 / 109 40% 6 24.07.2027 -
Charlie Gray Fleetwood Town Aktiv 88 / 98 40% 8 24.07.2027 -
Jenson Jones Walsall Aktiv 103 / 91 40% 7 19.07.2027 -
Simón Pinto Huachipato Aktiv 107 / 99 40% 1 16.07.2027 -
George Hoddle Cambridge United Aktiv 85 / 91 40% 1 11.07.2027 -
Godwin Oham Warri Wolves Aktiv 92 / 88 40% 1 10.07.2027 -
Tiago Freitas Benfica Aktiv 120 / 122 40% 4 09.07.2027 -
Marco Oroná Antofagasta Aktiv 93 / 101 40% 3 08.07.2027 -
Louis Leroux FC Nantes Aktiv 127 / 146 40% 10 07.07.2027 -
Issa Yusuf Shooting Stars Aktiv 89 / 103 40% 2 07.07.2027 -
Rhys Walters Port Vale Aktiv 102 / 94 40% 1 21.06.2027 -
Ezra Mayers West Ham United Aktiv 117 / 122 40% 3 16.06.2027 -
Juan Diego Perdomo Depor Aktiv 86 / 91 40% 1 15.06.2027 -
Daniel Padilla Zamora Aktiv 96 / 90 40% 1 15.06.2027 -
Edwin Asamoah Berekum Chelsea Aktiv 79 / 100 40% 3 10.06.2027 -
Miguel Figueiredo Benfica Aktiv 116 / 107 40% 1 03.06.2027 -
Olivier Leroux Mouscron Aktiv 90 / 108 40% 1 02.06.2027 -
Erick Sánchez RC Lens Aktiv 139 / 139 68% 1 01.06.2027 Befürworten
Gonçalo Oliveira Benfica Aktiv 114 / 132 40% 7 24.05.2027 -
Samuele di Benedetto Twente Aktiv 105 / 121 40% 2 17.05.2027 -
Eliás Montiel Borussia Dortmund Aktiv 131 / 130 40% 1 12.05.2027 -
James Bacca La Equidad Aktiv 124 / 138 40% 2 06.05.2027 -
Kazunari Kita Real Sociedad Aktiv 92 / 94 40% 4 30.04.2027 -
James Dornelly Peterborough United Aktiv 109 / 95 40% 3 04.04.2027 -
Cam Bragg West Ham United Aktiv 116 / 133 40% 1 02.04.2027 -
Emirhan Başyiğit Sivasspor Aktiv 98 / 110 40% 1 02.04.2027 -
David Ozoh Derby County Aktiv 125 / 112 40% 2 01.04.2027 -
Carlos Álvarez Club America Aktiv 148 / 135 40% 8 31.03.2027 -
Sorriso Famalicao Aktiv 131 / 120 40% 4 31.03.2027 -
Manu Pozo Torreense Aktiv 112 / 121 40% 3 31.03.2027 -
Ramiro Sordo Santos Laguna Aktiv 131 / 123 40% 4 28.03.2027 -
Mikey Johnston West Bromwich Albion Aktiv 117 / 104 40% 1 28.03.2027 -
Marcelo Allende Mamelodi Sundowns Aktiv 123 / 111 40% 5 27.03.2027 -
Jacques Ekomié Wrexham Aktiv 123 / 117 40% 2 26.03.2027 -
Kwadwo Baah Watford Aktiv 123 / 133 40% 1 26.03.2027 -
Oston O'runov Persepolis Aktiv 128 / 113 40% 3 20.03.2027 -
Brian Rodríguez Club America Aktiv 132 / 120 40% 3 17.03.2027 -
Juan Bezerra Zamalek Aktiv 129 / 102 40% 2 17.03.2027 -
Andre Brooks Sheffield United Aktiv 133 / 145 40% 3 17.03.2027 -
Oswin Appollis Orlando Pirates Aktiv 119 / 138 40% 3 14.03.2027 -
Mohammad Mehdi Mohebi Persepolis Aktiv 132 / 97 40% 3 14.03.2027 -
Bongani Zungu Ajax Cape Town Aktiv 119 / 144 40% 4 11.03.2027 -
Ilias Sebaoui Sint-Truiden Aktiv 133 / 123 40% 1 10.03.2027 -
Max Johnston Derby County Aktiv 131 / 128 40% 2 08.03.2027 -
Carlos Forbs Club Brugge Aktiv 123 / 147 40% 2 06.03.2027 -
Max Bird Birmingham Aktiv 143 / 118 40% 2 05.03.2027 -
Joe Gelhardt Hull City Aktiv 142 / 138 40% 1 04.03.2027 -
Petar Stanić Ludogorets Aktiv 136 / 140 40% 1 03.03.2027 -
Scott Twine Bristol City Aktiv 122 / 131 40% 1 02.03.2027 -
Derensili Sanches Fernandes Huddersfield Town Aktiv 127 / 120 40% 1 02.03.2027 -
Tony Springett Cheltenham Town Aktiv 116 / 121 40% 3 26.02.2027 -
Isaiah Jones Luton Town Aktiv 126 / 127 40% 4 25.02.2027 -
Tomáš Rigo Stoke City Aktiv 120 / 131 40% 1 24.02.2027 -
Jeremy Márquez Cruz Azul Aktiv 127 / 136 40% 1 24.02.2027 -
Osher Davida Maccabi Tel Aviv Aktiv 109 / 116 40% 1 22.02.2027 -
Brian Gutiérrez Guadalajara Aktiv 130 / 129 40% 1 20.02.2027 -
Duk Atlas Aktiv 113 / 127 40% 1 19.02.2027 -
Milan van Ewijk Coventry City Aktiv 143 / 124 40% 4 17.02.2027 -
Saeid Pouraliganji Rah Ahan Aktiv 110 / 92 40% 1 15.02.2027 -
Cian Ashford Cardiff City Aktiv 119 / 105 40% 5 14.02.2027 -
Jackson Muleka Konyaspor Aktiv 142 / 118 40% 1 14.02.2027 -
Ilyas Ansah Hull City Aktiv 140 / 122 40% 1 13.02.2027 -
Bradley Zwane SuperSport United Aktiv 114 / 97 40% 1 12.02.2027 -
Thijmen Blokzijl KV Kortrijk Aktiv 129 / 112 40% 1 12.02.2027 -
Yanis Begraoui Estoril Praia Aktiv 145 / 151 40% 1 10.02.2027 -
Tristan Degreef Anderlecht Aktiv 124 / 142 40% 1 07.02.2027 -
Finn Azaz Southampton Aktiv 141 / 131 40% 2 06.02.2027 -
Erik Lira Cruz Azul Aktiv 139 / 135 40% 3 06.02.2027 -
Peter Federico Gornik Zabrze Aktiv 137 / 119 40% 1 03.02.2027 -
Omar Campos Cruz Azul Aktiv 124 / 117 40% 5 01.02.2027 -
César Pérez Defensa y Justicia Aktiv 121 / 126 40% 3 27.01.2027 -
Fidel Ambríz Monterrey Aktiv 122 / 118 40% 2 27.01.2027 -
Yaimar Medina Racing Genk Aktiv 120 / 143 40% 1 27.01.2027 -
Elia Caprile Cagliari Aktiv 152 / 136 40% 1 18.01.2027 -
Jesús Orozco Chiquete Cruz Azul Aktiv 127 / 130 40% 3 13.01.2027 -
Marco Pellegrino Boca Juniors Aktiv 132 / 127 40% 1 13.01.2027 -
Mamadou Sylla Al-Riyadh Aktiv 115 / 120 40% 1 12.01.2027 -
Brooke Norton-Cuffy Hull City Aktiv 147 / 134 40% 2 07.01.2027 -
Pedro Vite Pumas UNAM Aktiv 119 / 111 40% 3 07.01.2027 Beobachten
Terry Devlin Portsmouth Aktiv 124 / 132 40% 1 07.01.2027 -
Ricardo Echeverría Santos Laguna Aktiv 110 / 112 40% 1 06.01.2027 -
Ethan Pye Stockport County Aktiv 109 / 104 40% 1 05.01.2027 -
Bosun Lawal Stoke City Aktiv 136 / 121 40% 2 03.01.2027 -
Alejandro Gómez Tijuana Aktiv 124 / 112 40% 2 03.01.2027 -
Taiga Hata Sint-Truiden Aktiv 123 / 108 40% 1 03.01.2027 -
Georgie Gent Barnsley Aktiv 121 / 123 40% 1 02.01.2027 -
Stanislav Agkatsev Brentford Aktiv 132 / 133 66% 1 01.01.2027 Befürworten
Sampson Dweh Mallorca Aktiv 133 / 134 66% 1 01.01.2027 Befürworten
Jacob Greaves Ipswich Town Aktiv 138 / 142 40% 6 30.12.2026 -
Nazareno Colombo Racing Club Aktiv 129 / 120 40% 3 30.12.2026 -
César Araújo Tigres Aktiv 120 / 126 40% 3 28.12.2026 -
Dara O'Shea Ipswich Town Aktiv 138 / 127 40% 2 28.12.2026 -
Manu Morlanes Mallorca Aktiv 135 / 148 40% 5 26.12.2026 -
Mamadou Sangaré Brentford Aktiv 138 / 148 40% 1 22.12.2026 -
Gastón Benedetti Estudiantes Verloren 131 / 122 40% 4 21.12.2026 -
César Ibáñez Huracán Aktiv 127 / 122 40% 5 20.12.2026 -
Sergi Cardona KAA Gent Aktiv 155 / 162 40% 3 20.12.2026 -
Alejandro Pozo Standard Liege Aktiv 127 / 129 40% 6 17.12.2026 -
Valentín Gómez Betis Aktiv 145 / 154 40% 1 17.12.2026 -
Thomas Carrique Andorra Aktiv 128 / 113 40% 1 16.12.2026 -
Gustavo Mantuan Zenit Aktiv 126 / 152 40% 2 13.12.2026 -
Toby Collyer West Bromwich Albion Aktiv 127 / 116 40% 1 11.12.2026 -
Ilay Camara Anderlecht Aktiv 123 / 128 40% 1 11.12.2026 -
Damián Fernández Defensa y Justicia Aktiv 119 / 124 40% 1 10.12.2026 -
Dennis Cirkin Queens Park Rangers Aktiv 137 / 116 40% 1 09.12.2026 -
Ramón Juárez Club America Aktiv 137 / 123 40% 1 07.12.2026 Mehr Infos nötig
Álex Centelles Levski Aktiv 131 / 120 40% 1 06.12.2026 -
Oliver Skipp Leicester City Aktiv 139 / 135 40% 2 05.12.2026 -
Franco Ibarra Rosario Central Aktiv 134 / 131 40% 4 04.12.2026 -
Luke McNally Bristol City Aktiv 127 / 113 40% 2 04.12.2026 -
Toti Wolverhampton Aktiv 120 / 150 40% 1 03.12.2026 -
Aníbal Moreno River Plate Aktiv 129 / 134 40% 3 26.11.2026 -
Lautaro Di Lollo Boca Juniors Aktiv 122 / 133 40% 1 25.11.2026 -
Harry Clarke Preston Aktiv 120 / 118 40% 1 22.11.2026 -
Shea Charles Southampton Aktiv 128 / 127 40% 1 22.11.2026 -
Anel Ahmedhodžić Burnley Aktiv 130 / 132 40% 2 19.11.2026 -
Welington Southampton Aktiv 137 / 114 40% 1 19.11.2026 -
Joaquim Tigres Aktiv 123 / 128 40% 1 18.11.2026 -
Adam Randell Bristol City Aktiv 125 / 130 40% 1 18.11.2026 -
Jordan Beyer Burnley Aktiv 122 / 144 40% 1 17.11.2026 -
Santiago González Tigre Aktiv 132 / 124 40% 1 16.11.2026 -
Marcelino Moreno Lanús Aktiv 136 / 136 40% 1 13.11.2026 -
Ferland Mendy Real Madrid Aktiv 146 / 156 40% 2 12.11.2026 -
Ulises Sánchez Gimnasia y Esgrima Aktiv 124 / 130 40% 1 12.11.2026 -
Alan Lescano Argentinos Juniors Aktiv 135 / 125 40% 1 11.11.2026 -
Leandro Lozano Boca Juniors Aktiv 120 / 129 40% 1 11.11.2026 -
Guido Mainero Platense Aktiv 125 / 118 40% 3 10.11.2026 -
Elías Gómez Vélez Aktiv 132 / 128 40% 1 10.11.2026 -
Agustín Palavecino Cruz Azul Aktiv 146 / 147 40% 2 06.11.2026 -
Tiago Palacios Estudiantes Aktiv 131 / 130 40% 1 05.11.2026 -
Matías Zaracho Racing Club Aktiv 134 / 128 40% 2 03.11.2026 -
Valentín Depietri Talleres Aktiv 125 / 130 40% 1 03.11.2026 -
Matías Fernández Independiente Rivadavia Aktiv 119 / 126 40% 1 02.11.2026 -
Rick Talleres Aktiv 126 / 117 40% 2 27.10.2026 -
Juan Pablo Gallego Fehervar Aktiv 106 / 93 40% 2 27.10.2026 -
Leonardo Godoy Independiente Aktiv 127 / 131 40% 1 27.10.2026 -
Gonzalo Ríos Independiente Rivadavia Aktiv 124 / 119 40% 1 27.10.2026 -
Santiago Longo Belgrano Aktiv 133 / 116 40% 1 24.10.2026 -
Lucas Souto Defensa y Justicia Aktiv 122 / 132 40% 1 24.10.2026 -
Emanuel Coronel Rosario Central Aktiv 132 / 115 40% 1 24.10.2026 -
Nicolás Laméndola Atlético Tucumán Aktiv 114 / 117 40% 1 24.10.2026 -
Juan Cruz de los Santos Nacional Aktiv 117 / 126 40% 1 24.10.2026 -
Antony Alonso Deportivo Riestra Aktiv 127 / 122 40% 3 22.10.2026 -
Ramiro Ruiz Rodríguez Atlético Tucumán Aktiv 114 / 111 40% 3 21.10.2026 -
Juan Velázquez Belgrano Aktiv 115 / 129 40% 1 21.10.2026 -
Joaquín Gho Argentinos Juniors Aktiv 122 / 114 40% 3 19.10.2026 -
Alex Vigo Independiente Rivadavia Aktiv 120 / 114 40% 1 19.10.2026 -
Rodrigo De Paul Inter Miami CF Aktiv 163 / 144 40% 2 16.10.2026 -
Óscar Valentín FC Copenhagen Aktiv 144 / 149 40% 2 13.10.2026 -
Ignacio Rodríguez Racing Club Aktiv 121 / 118 40% 1 13.10.2026 -
Renzo Tesuri Atlético Tucumán Aktiv 129 / 125 40% 1 12.10.2026 -
Jhonatan Candia Barracas Central Aktiv 126 / 121 40% 1 10.10.2026 -
Tyrhys Dolan Espanyol Aktiv 145 / 126 40% 3 08.10.2026 -
Francisco Herrera Veracruz Aktiv 132 / 121 40% 2 08.10.2026 -
Luís Esteves Atlas Aktiv 131 / 129 40% 1 08.10.2026 -
Brian Lozano Cerro Largo Aktiv 125 / 115 40% 1 07.10.2026 -
Talles Magno New York City Aktiv 126 / 141 40% 2 05.10.2026 -
Ryan Gauld Vancouver Whitecaps Aktiv 137 / 134 40% 2 04.10.2026 -
Víctor Guzmán Toluca Aktiv 135 / 126 40% 1 03.10.2026 -
Alexey Miranchuk Atlanta United FC Aktiv 146 / 148 40% 1 03.10.2026 -
Jens Petter Hauge Bodo/Glimt Aktiv 134 / 136 40% 1 01.10.2026 -
Tomás Alarcón Colo-Colo Aktiv 119 / 123 40% 1 27.09.2026 -
Morgan Guilavogui Real Salt Lake Aktiv 130 / 117 40% 2 25.09.2026 -
Matías Fernández Colo-Colo Aktiv 127 / 116 40% 1 25.09.2026 -
Sergi Palencia Los Angeles Football Club Aktiv 122 / 132 40% 1 24.09.2026 -
João Cancelo Spartak Moscow Aktiv 148 / 149 40% 1 23.09.2026 -
Diego Luna Real Salt Lake Aktiv 128 / 121 40% 2 21.09.2026 -
Allan Saint-Maximin Charlotte Football Club Aktiv 146 / 138 40% 2 20.09.2026 -
Djordje Mihailović Toronto FC Aktiv 135 / 119 40% 1 19.09.2026 -
Santiago Rodríguez Columbus Crew Aktiv 130 / 133 40% 1 17.09.2026 -
Jonathan Bamba Chicago Fire Aktiv 127 / 142 40% 1 14.09.2026 -
Luis Romo Guadalajara Aktiv 137 / 150 40% 1 13.09.2026 -
Edu Expósito Espanyol Aktiv 136 / 137 40% 1 11.09.2026 -
Ander Guevara Racing Genk Aktiv 133 / 134 40% 1 11.09.2026 -
Facundo Mura Inter Miami CF Aktiv 120 / 112 40% 1 11.09.2026 -
Julián Brea Cobresal Aktiv 98 / 99 40% 1 09.09.2026 -
Josh Sargent Toronto FC Aktiv 120 / 117 40% 1 20.08.2026 -
Dwight McNeil Crystal Palace Aktiv 127 / 126 40% 1 01.08.2026 -